createdAt,value
2022-10-19T00:00:26.221Z,20.75
2022-10-19T00:01:27.668Z,21.25
2022-10-19T00:02:29.178Z,18.40
2022-10-19T00:03:30.840Z,18.20
2022-10-19T00:04:32.270Z,19.52
2022-10-19T00:05:35.057Z,20.00
2022-10-19T00:06:37.705Z,19.00
2022-10-19T00:07:39.209Z,21.88
2022-10-19T00:08:41.691Z,19.25
2022-10-19T00:09:43.810Z,15.68
2022-10-19T00:10:45.243Z,17.95
2022-10-19T00:11:48.533Z,20.95
2022-10-19T00:12:50.179Z,21.20
2022-10-19T00:13:52.288Z,22.70
2022-10-19T00:14:53.742Z,23.02
2022-10-19T00:15:55.184Z,20.92
2022-10-19T00:16:56.639Z,21.77
2022-10-19T00:17:58.037Z,21.67
2022-10-19T00:19:01.613Z,21.40
2022-10-19T00:20:03.702Z,21.33
2022-10-19T00:21:08.579Z,21.83
2022-10-19T00:22:13.046Z,21.80
2022-10-19T00:23:15.633Z,21.92
2022-10-19T00:24:17.310Z,22.02
2022-10-19T00:25:18.799Z,23.05
2022-10-19T00:26:20.375Z,22.17
2022-10-19T00:27:21.803Z,22.40
2022-10-19T00:28:23.294Z,22.58
2022-10-19T00:29:24.747Z,21.60
2022-10-19T00:30:26.169Z,22.05
2022-10-19T00:31:27.749Z,22.08
2022-10-19T00:32:29.195Z,22.20
2022-10-19T00:33:30.625Z,22.08
2022-10-19T00:34:32.062Z,21.38
2022-10-19T00:35:33.500Z,22.98
2022-10-19T00:36:39.156Z,22.33
2022-10-19T00:37:40.576Z,23.27
2022-10-19T00:38:42.239Z,22.63
2022-10-19T00:39:43.773Z,23.73
2022-10-19T00:40:45.863Z,22.83
2022-10-19T00:41:47.994Z,25.05
2022-10-19T00:42:54.400Z,21.80
2022-10-19T00:43:59.413Z,24.42
2022-10-19T00:45:11.152Z,22.58
2022-10-19T00:46:13.388Z,22.45
2022-10-19T00:47:17.142Z,22.92
2022-10-19T00:48:22.528Z,23.60
2022-10-19T00:49:26.835Z,20.33
2022-10-19T00:50:28.308Z,21.40
2022-10-19T00:51:31.889Z,22.85
2022-10-19T00:52:35.111Z,21.23
2022-10-19T00:53:37.011Z,22.25
2022-10-19T00:54:40.783Z,21.95
2022-10-19T00:55:43.098Z,22.42
2022-10-19T00:56:47.504Z,21.90
2022-10-19T00:57:49.026Z,21.20
2022-10-19T00:58:50.497Z,22.13
2022-10-19T00:59:52.192Z,22.25
2022-10-19T01:00:53.809Z,22.20
2022-10-19T01:01:55.533Z,22.33
2022-10-19T01:02:57.959Z,24.63
2022-10-19T01:03:59.741Z,26.52
2022-10-19T01:05:01.774Z,53.83
2022-10-19T01:06:03.676Z,40.35
2022-10-19T01:07:06.696Z,20.25
2022-10-19T01:08:11.460Z,26.63
2022-10-19T01:09:13.087Z,26.45
2022-10-19T01:10:14.848Z,23.65
2022-10-19T01:11:26.807Z,25.20
2022-10-19T01:12:54.850Z,24.05
2022-10-19T01:14:09.979Z,25.65
2022-10-19T01:15:20.764Z,23.33
2022-10-19T01:16:31.944Z,22.23
2022-10-19T01:17:45.043Z,23.58
2022-10-19T01:18:58.089Z,25.42
2022-10-19T01:20:50.157Z,24.08
2022-10-19T01:22:05.318Z,20.73
2022-10-19T01:23:34.081Z,19.55
2022-10-19T01:24:51.861Z,31.27
2022-10-19T01:26:02.936Z,24.70
2022-10-19T01:27:29.004Z,30.85
2022-10-19T01:28:44.253Z,55.15
2022-10-19T01:30:04.532Z,53.95
2022-10-19T01:31:16.963Z,42.15
2022-10-19T01:32:25.096Z,27.83
2022-10-19T01:33:35.774Z,34.15
2022-10-19T01:34:45.023Z,31.17
2022-10-19T01:35:55.541Z,38.72
2022-10-19T01:37:02.449Z,41.28
2022-10-19T01:38:21.914Z,38.42
2022-10-19T01:39:30.435Z,32.25
2022-10-19T01:40:40.371Z,42.15
2022-10-19T01:41:49.267Z,34.53
2022-10-19T01:42:58.672Z,30.38
2022-10-19T01:44:07.770Z,26.02
2022-10-19T01:45:15.930Z,29.15
2022-10-19T01:46:22.862Z,31.85
2022-10-19T01:47:28.100Z,33.72
2022-10-19T01:48:34.526Z,37.63
2022-10-19T01:49:41.302Z,38.88
2022-10-19T01:50:47.594Z,41.72
2022-10-19T01:51:53.868Z,39.72
2022-10-19T01:52:57.153Z,41.83
2022-10-19T01:54:04.734Z,40.58
2022-10-19T01:55:10.342Z,44.50
2022-10-19T01:56:12.703Z,47.90
2022-10-19T01:57:18.674Z,48.75
2022-10-19T01:58:26.255Z,51.03
2022-10-19T01:59:28.803Z,54.03
2022-10-19T02:00:35.211Z,57.40
2022-10-19T02:01:41.292Z,49.10
2022-10-19T02:02:45.960Z,49.95
2022-10-19T02:03:48.678Z,56.72
2022-10-19T02:04:51.705Z,51.13
2022-10-19T02:05:54.451Z,47.67
2022-10-19T02:06:56.821Z,51.08
2022-10-19T02:08:01.110Z,43.55
2022-10-19T02:09:02.555Z,50.22
2022-10-19T02:10:04.643Z,46.03
2022-10-19T02:11:06.454Z,43.95
2022-10-19T02:12:10.828Z,51.75
2022-10-19T02:13:15.000Z,49.15
2022-10-19T02:14:19.097Z,54.85
2022-10-19T02:15:23.527Z,52.38
2022-10-19T02:16:30.164Z,56.45
2022-10-19T02:17:35.416Z,63.63
2022-10-19T02:18:44.663Z,54.83
2022-10-19T02:19:46.133Z,54.65
2022-10-19T02:20:47.986Z,50.50
2022-10-19T02:21:51.418Z,57.85
2022-10-19T02:22:52.880Z,63.20
2022-10-19T02:23:54.494Z,64.93
2022-10-19T02:24:56.048Z,62.33
2022-10-19T02:25:58.311Z,60.58
2022-10-19T02:27:00.552Z,60.42
2022-10-19T02:28:04.149Z,52.28
2022-10-19T02:29:05.953Z,53.20
2022-10-19T02:30:08.910Z,46.03
2022-10-19T02:31:10.697Z,48.83
2022-10-19T02:32:13.492Z,48.88
2022-10-19T02:33:15.616Z,46.97
2022-10-19T02:34:17.158Z,49.50
2022-10-19T02:35:18.852Z,42.25
2022-10-19T02:36:20.830Z,43.33
2022-10-19T02:37:25.529Z,40.08
2022-10-19T02:38:27.566Z,39.92
2022-10-19T02:39:29.314Z,44.17
2022-10-19T02:40:33.434Z,37.92
2022-10-19T02:41:39.295Z,44.70
2022-10-19T02:42:47.030Z,39.35
2022-10-19T02:43:51.428Z,44.95
2022-10-19T02:44:59.939Z,41.72
2022-10-19T02:46:05.567Z,43.95
2022-10-19T02:47:12.412Z,39.55
2022-10-19T02:48:21.661Z,43.28
2022-10-19T02:49:23.565Z,42.53
2022-10-19T02:50:25.409Z,40.58
2022-10-19T02:51:31.520Z,39.90
2022-10-19T02:52:33.002Z,42.25
2022-10-19T02:53:34.423Z,36.20
2022-10-19T02:54:38.879Z,37.08
2022-10-19T02:56:47.252Z,31.75
2022-10-19T02:57:48.723Z,40.63
2022-10-19T02:58:50.146Z,38.03
2022-10-19T02:59:52.492Z,39.38
2022-10-19T03:00:54.690Z,43.03
2022-10-19T03:01:56.145Z,36.75
2022-10-19T03:02:57.606Z,42.78
2022-10-19T03:04:00.397Z,24.52
2022-10-19T03:05:01.997Z,27.83
2022-10-19T03:06:03.636Z,29.15
2022-10-19T03:07:05.177Z,27.08
2022-10-19T03:08:06.586Z,43.22
2022-10-19T03:09:08.139Z,25.48
2022-10-19T03:10:10.034Z,37.85
2022-10-19T03:11:11.448Z,45.05
2022-10-19T03:12:13.924Z,37.13
2022-10-19T03:13:15.355Z,31.98
2022-10-19T03:14:16.821Z,40.38
2022-10-19T03:15:19.067Z,34.17
2022-10-19T03:16:20.489Z,28.35
2022-10-19T03:17:22.047Z,37.75
2022-10-19T03:18:23.547Z,33.53
2022-10-19T03:19:26.415Z,39.08
2022-10-19T03:20:27.844Z,38.40
2022-10-19T03:21:29.300Z,40.95
2022-10-19T03:22:30.721Z,34.13
2022-10-19T03:23:32.172Z,36.75
2022-10-19T03:24:34.003Z,35.30
2022-10-19T03:25:35.481Z,39.03
2022-10-19T03:26:36.947Z,35.92
2022-10-19T03:27:38.365Z,32.30
2022-10-19T03:28:40.139Z,35.33
2022-10-19T03:29:41.621Z,34.38
2022-10-19T03:30:43.073Z,37.05
2022-10-19T03:31:44.555Z,35.75
2022-10-19T03:32:46.090Z,40.30
2022-10-19T03:33:47.551Z,41.20
2022-10-19T03:34:50.287Z,40.17
2022-10-19T03:36:11.839Z,36.10
2022-10-19T03:37:13.243Z,45.80
2022-10-19T03:38:14.726Z,35.53
2022-10-19T03:39:17.151Z,34.97
2022-10-19T03:40:18.589Z,31.58
2022-10-19T03:41:20.606Z,32.20
2022-10-19T03:42:22.030Z,31.40
2022-10-19T03:43:23.455Z,36.50
2022-10-19T03:44:25.044Z,33.78
2022-10-19T03:45:26.498Z,39.95
2022-10-19T03:46:28.233Z,36.15
2022-10-19T03:47:29.830Z,37.95
2022-10-19T03:48:31.292Z,34.08
2022-10-19T03:49:34.643Z,39.13
2022-10-19T03:50:39.543Z,31.83
2022-10-19T03:51:41.130Z,38.72
2022-10-19T03:52:42.579Z,40.03
2022-10-19T03:53:44.569Z,37.35
2022-10-19T03:54:46.300Z,38.05
2022-10-19T03:55:47.837Z,35.08
2022-10-19T03:56:49.258Z,38.75
2022-10-19T03:57:50.684Z,33.38
2022-10-19T03:58:54.238Z,35.08
2022-10-19T03:59:55.677Z,39.30
2022-10-19T04:00:57.151Z,36.67
2022-10-19T04:01:58.588Z,33.60
2022-10-19T04:03:00.056Z,42.97
2022-10-19T04:04:04.341Z,42.75
2022-10-19T04:05:07.056Z,38.67
2022-10-19T04:06:15.759Z,49.08
2022-10-19T04:07:19.753Z,40.83
2022-10-19T04:08:21.207Z,52.45
2022-10-19T04:09:23.129Z,37.35
2022-10-19T04:10:24.791Z,38.03
2022-10-19T04:11:28.548Z,34.45
2022-10-19T04:12:30.052Z,31.45
2022-10-19T04:13:33.311Z,27.35
2022-10-19T04:14:52.388Z,27.95
2022-10-19T04:15:56.739Z,38.28
2022-10-19T04:16:58.210Z,29.55
2022-10-19T04:17:59.688Z,32.25
2022-10-19T04:19:01.340Z,29.70
2022-10-19T04:20:03.023Z,29.75
2022-10-19T04:21:05.701Z,36.88
2022-10-19T04:22:08.471Z,28.85
2022-10-19T04:23:09.963Z,38.53
2022-10-19T04:24:13.659Z,26.23
2022-10-19T04:25:15.221Z,28.70
2022-10-19T04:26:17.070Z,26.83
2022-10-19T04:27:18.537Z,29.27
2022-10-19T04:28:20.053Z,28.08
2022-10-19T04:29:26.481Z,29.77
2022-10-19T04:30:31.206Z,29.27
2022-10-19T04:31:32.788Z,23.73
2022-10-19T04:32:34.208Z,28.35
2022-10-19T04:33:35.747Z,23.42
2022-10-19T04:34:39.893Z,29.88
2022-10-19T04:35:41.705Z,27.17
2022-10-19T04:36:43.189Z,24.13
2022-10-19T04:37:45.987Z,30.45
2022-10-19T04:38:47.693Z,39.35
2022-10-19T04:39:49.167Z,27.05
2022-10-19T04:40:50.624Z,34.78
2022-10-19T04:41:52.058Z,35.28
2022-10-19T04:42:53.486Z,25.88
2022-10-19T04:43:57.287Z,30.85
2022-10-19T04:44:58.742Z,35.40
2022-10-19T04:46:02.960Z,25.90
2022-10-19T04:47:04.451Z,23.00
2022-10-19T04:48:06.188Z,22.15
2022-10-19T04:49:07.701Z,22.73
2022-10-19T04:50:09.712Z,29.58
2022-10-19T04:51:11.804Z,32.78
2022-10-19T04:52:13.249Z,23.98
2022-10-19T04:53:16.115Z,26.30
2022-10-19T04:54:17.586Z,29.55
2022-10-19T04:55:19.162Z,27.63
2022-10-19T04:56:22.583Z,25.80
2022-10-19T04:57:24.059Z,21.38
2022-10-19T04:58:25.828Z,22.02
2022-10-19T04:59:27.250Z,23.48
2022-10-19T05:00:28.663Z,23.58
2022-10-19T05:01:30.985Z,22.73
2022-10-19T05:02:32.642Z,26.67
2022-10-19T05:03:34.126Z,28.48
2022-10-19T05:04:35.589Z,28.38
2022-10-19T05:05:37.034Z,25.45
2022-10-19T05:06:38.487Z,40.55
2022-10-19T05:07:39.949Z,26.67
2022-10-19T05:08:42.790Z,32.05
2022-10-19T05:09:44.291Z,33.40
2022-10-19T05:10:47.708Z,24.35
2022-10-19T05:11:49.448Z,27.05
2022-10-19T05:12:50.886Z,22.35
2022-10-19T05:13:52.395Z,24.67
2022-10-19T05:14:53.816Z,25.58
2022-10-19T05:15:56.574Z,26.00
2022-10-19T05:16:58.109Z,28.42
2022-10-19T05:17:59.770Z,23.90
2022-10-19T05:19:01.253Z,26.02
2022-10-19T05:20:02.823Z,24.08
2022-10-19T05:21:06.174Z,24.63
2022-10-19T05:22:08.632Z,23.42
2022-10-19T05:23:10.055Z,27.15
2022-10-19T05:24:13.116Z,18.08
2022-10-19T05:25:14.768Z,22.05
2022-10-19T05:26:18.183Z,19.63
2022-10-19T05:27:19.666Z,19.00
2022-10-19T05:28:21.138Z,20.63
2022-10-19T05:29:22.683Z,20.35
2022-10-19T05:30:24.132Z,21.00
2022-10-19T05:31:28.297Z,18.98
2022-10-19T05:32:29.793Z,23.05
2022-10-19T05:33:31.221Z,26.15
2022-10-19T05:34:32.656Z,22.73
2022-10-19T05:35:34.089Z,24.52
2022-10-19T05:36:38.009Z,21.90
2022-10-19T05:37:39.427Z,16.88
2022-10-19T05:38:41.286Z,23.77
2022-10-19T05:39:44.050Z,16.17
2022-10-19T05:40:48.305Z,18.65
2022-10-19T05:41:52.916Z,18.00
2022-10-19T05:42:54.369Z,19.05
2022-10-19T05:43:57.258Z,21.40
2022-10-19T05:44:58.688Z,19.40
2022-10-19T05:46:03.789Z,20.02
2022-10-19T05:47:05.257Z,19.70
2022-10-19T05:48:06.873Z,22.50
2022-10-19T05:49:09.929Z,18.38
2022-10-19T05:50:11.384Z,19.17
2022-10-19T05:51:15.804Z,17.13
2022-10-19T05:52:17.237Z,23.15
2022-10-19T05:53:18.690Z,19.00
2022-10-19T05:54:22.668Z,16.40
2022-10-19T05:55:27.809Z,15.25
2022-10-19T05:56:31.578Z,22.27
2022-10-19T05:57:33.359Z,20.48
2022-10-19T05:58:35.905Z,20.38
2022-10-19T05:59:37.377Z,18.15
2022-10-19T06:00:38.804Z,28.58
2022-10-19T06:01:40.428Z,27.60
2022-10-19T06:02:41.943Z,20.73
2022-10-19T06:03:43.437Z,24.38
2022-10-19T06:04:45.037Z,27.52
2022-10-19T06:05:46.477Z,20.13
2022-10-19T06:06:47.919Z,26.17
2022-10-19T06:07:49.367Z,29.92
2022-10-19T06:08:51.843Z,27.02
2022-10-19T06:09:53.262Z,34.58
2022-10-19T06:11:05.099Z,28.27
2022-10-19T06:12:06.539Z,25.73
2022-10-19T06:13:08.005Z,26.10
2022-10-19T06:14:12.877Z,24.58
2022-10-19T06:15:14.442Z,23.80
2022-10-19T06:16:17.565Z,22.60
2022-10-19T06:17:19.006Z,18.42
2022-10-19T06:18:20.466Z,25.35
2022-10-19T06:19:21.900Z,28.35
2022-10-19T06:20:23.391Z,29.42
2022-10-19T06:21:26.744Z,23.88
2022-10-19T06:22:28.219Z,27.45
2022-10-19T06:23:29.886Z,24.15
2022-10-19T06:24:31.476Z,25.10
2022-10-19T06:25:33.129Z,28.60
2022-10-19T06:26:35.928Z,21.52
2022-10-19T06:27:37.702Z,22.50
2022-10-19T06:28:41.115Z,23.90
2022-10-19T06:29:42.551Z,24.60
2022-10-19T06:30:44.082Z,25.55
2022-10-19T06:31:45.573Z,24.92
2022-10-19T06:32:47.039Z,27.60
2022-10-19T06:33:49.691Z,26.55
2022-10-19T06:34:55.744Z,23.92
2022-10-19T06:36:05.335Z,26.25
2022-10-19T06:37:06.791Z,28.17
2022-10-19T06:38:08.217Z,22.98
2022-10-19T06:39:09.643Z,22.05
2022-10-19T06:40:11.539Z,20.05
2022-10-19T06:41:13.251Z,20.05
2022-10-19T06:42:15.995Z,19.10
2022-10-19T06:43:17.425Z,20.17
2022-10-19T06:44:18.963Z,23.48
2022-10-19T06:45:20.392Z,21.75
2022-10-19T06:46:23.440Z,23.00
2022-10-19T06:47:24.960Z,22.75
2022-10-19T06:48:26.401Z,22.60
2022-10-19T06:49:28.142Z,22.00
2022-10-19T06:50:29.568Z,22.98
2022-10-19T06:51:32.227Z,20.58
2022-10-19T06:52:34.237Z,24.90
2022-10-19T06:53:36.786Z,27.88
2022-10-19T06:54:38.211Z,26.83
2022-10-19T06:55:39.618Z,30.80
2022-10-19T06:56:41.105Z,25.60
2022-10-19T06:57:43.981Z,23.80
2022-10-19T06:58:45.584Z,23.90
2022-10-19T06:59:49.048Z,24.50
2022-10-19T07:00:56.505Z,21.35
2022-10-19T07:01:57.950Z,24.67
2022-10-19T07:02:59.413Z,22.90
2022-10-19T07:04:00.891Z,22.75
2022-10-19T07:05:06.893Z,25.77
2022-10-19T07:06:10.275Z,25.02
2022-10-19T07:07:11.806Z,23.70
2022-10-19T07:08:13.332Z,27.08
2022-10-19T07:09:14.823Z,29.30
2022-10-19T07:10:16.629Z,30.88
2022-10-19T07:11:20.748Z,30.40
2022-10-19T07:12:22.196Z,29.38
2022-10-19T07:13:25.719Z,28.02
2022-10-19T07:14:27.137Z,32.60
2022-10-19T07:15:28.584Z,38.75
2022-10-19T07:16:30.044Z,32.90
2022-10-19T07:17:31.765Z,30.95
2022-10-19T07:18:34.707Z,31.17
2022-10-19T07:19:36.183Z,31.50
2022-10-19T07:20:37.886Z,31.45
2022-10-19T07:21:39.325Z,23.88
2022-10-19T07:22:40.730Z,19.85
2022-10-19T07:23:43.508Z,24.33
2022-10-19T07:24:45.502Z,21.52
2022-10-19T07:25:46.924Z,26.00
2022-10-19T07:26:48.369Z,27.13
2022-10-19T07:27:49.821Z,33.40
2022-10-19T07:28:53.531Z,22.10
2022-10-19T07:29:54.960Z,17.70
2022-10-19T07:30:56.636Z,13.43
2022-10-19T07:31:58.070Z,13.23
2022-10-19T07:32:59.492Z,15.02
2022-10-19T07:34:03.033Z,17.00
2022-10-19T07:35:05.517Z,17.52
2022-10-19T07:36:09.141Z,15.50
2022-10-19T07:37:10.626Z,18.63
2022-10-19T07:38:12.112Z,15.90
2022-10-19T07:39:16.917Z,16.90
2022-10-19T07:40:18.368Z,14.52
2022-10-19T07:41:21.834Z,17.63
2022-10-19T07:42:23.291Z,13.23
2022-10-19T07:43:24.751Z,14.15
2022-10-19T07:44:28.842Z,13.38
2022-10-19T07:45:30.480Z,17.90
2022-10-19T07:46:32.503Z,14.65
2022-10-19T07:47:34.825Z,15.40
2022-10-19T07:48:36.720Z,16.58
2022-10-19T07:49:38.188Z,15.02
2022-10-19T07:50:39.640Z,15.57
2022-10-19T07:51:41.154Z,20.58
2022-10-19T07:52:42.979Z,15.43
2022-10-19T07:53:44.752Z,19.67
2022-10-19T07:54:46.199Z,14.75
2022-10-19T07:55:47.613Z,16.90
2022-10-19T07:56:49.059Z,16.30
2022-10-19T07:57:50.527Z,14.23
2022-10-19T07:58:53.476Z,17.13
2022-10-19T07:59:56.315Z,15.60
2022-10-19T08:01:00.232Z,18.45
2022-10-19T08:02:01.711Z,15.70
2022-10-19T08:05:46.154Z,15.52
2022-10-19T08:06:47.624Z,16.45
2022-10-19T08:07:49.067Z,15.07
2022-10-19T08:08:51.347Z,14.55
2022-10-19T08:09:54.118Z,13.75
2022-10-19T08:10:56.627Z,16.45
2022-10-19T08:11:58.149Z,16.05
2022-10-19T08:12:59.567Z,17.90
2022-10-19T08:14:01.507Z,17.85
2022-10-19T08:15:05.162Z,16.40
2022-10-19T08:16:23.091Z,16.15
2022-10-19T08:17:24.538Z,16.85
2022-10-19T08:18:26.368Z,16.02
2022-10-19T08:19:27.847Z,16.67
2022-10-19T08:20:29.329Z,16.23
2022-10-19T08:21:31.151Z,16.15
2022-10-19T08:22:33.052Z,17.08
2022-10-19T08:23:34.737Z,16.23
2022-10-19T08:24:36.189Z,16.13
2022-10-19T08:25:37.654Z,15.77
2022-10-19T08:26:39.872Z,15.68
2022-10-19T08:27:41.600Z,17.17
2022-10-19T08:28:43.109Z,16.23
2022-10-19T08:29:44.560Z,13.65
2022-10-19T08:30:47.349Z,14.35
2022-10-19T08:31:49.635Z,16.67
2022-10-19T08:32:51.204Z,18.25
2022-10-19T08:33:52.638Z,16.80
2022-10-19T08:34:54.101Z,19.08
2022-10-19T08:35:55.515Z,16.90
2022-10-19T08:36:56.969Z,19.73
2022-10-19T08:37:58.868Z,21.25
2022-10-19T08:39:00.276Z,18.58
2022-10-19T08:40:01.721Z,17.40
2022-10-19T08:41:18.385Z,18.15
2022-10-19T08:42:28.303Z,20.00
2022-10-19T08:43:35.766Z,20.77
2022-10-19T08:45:14.031Z,20.95
2022-10-19T08:46:24.630Z,18.70
2022-10-19T08:47:51.998Z,22.35
2022-10-19T08:48:53.454Z,21.88
2022-10-19T08:49:55.290Z,23.35
2022-10-19T08:50:58.984Z,21.83
2022-10-19T08:52:04.431Z,23.80
2022-10-19T08:53:08.215Z,23.58
2022-10-19T08:54:16.805Z,25.30
2022-10-19T08:55:27.537Z,24.52
2022-10-19T08:56:49.990Z,28.40
2022-10-19T08:58:00.143Z,23.00
2022-10-19T08:59:10.464Z,23.38
2022-10-19T09:00:20.791Z,25.83
2022-10-19T09:01:37.534Z,25.45
2022-10-19T09:02:56.713Z,23.67
2022-10-19T09:04:03.532Z,22.25
2022-10-19T09:05:13.420Z,28.05
2022-10-19T09:06:23.135Z,25.60
2022-10-19T09:07:28.927Z,26.30
2022-10-19T09:08:30.575Z,24.92
2022-10-19T09:09:34.006Z,28.05
2022-10-19T09:10:38.674Z,29.38
2022-10-19T09:11:44.623Z,25.40
2022-10-19T09:12:53.850Z,25.42
2022-10-19T09:14:05.376Z,23.13
2022-10-19T09:15:12.744Z,24.35
2022-10-19T09:16:17.304Z,23.20
2022-10-19T09:17:20.391Z,24.67
2022-10-19T09:18:25.507Z,24.25
2022-10-19T09:19:28.377Z,23.85
2022-10-19T09:20:38.187Z,22.33
2022-10-19T09:21:47.606Z,22.23
2022-10-19T09:22:57.974Z,23.02
2022-10-19T09:24:05.396Z,22.75
2022-10-19T09:25:14.119Z,25.52
2022-10-19T09:26:17.864Z,22.85
2022-10-19T09:27:22.529Z,24.45
2022-10-19T09:28:43.377Z,20.88
2022-10-19T09:29:50.804Z,21.65
2022-10-19T09:30:55.815Z,24.15
2022-10-19T09:32:00.367Z,21.70
2022-10-19T09:33:03.412Z,22.33
2022-10-19T09:34:08.595Z,21.98
2022-10-19T09:35:22.662Z,20.48
2022-10-19T09:36:49.436Z,21.83
2022-10-19T09:37:51.384Z,19.63
2022-10-19T09:38:52.945Z,21.23
2022-10-19T09:39:56.007Z,22.23
2022-10-19T09:40:57.730Z,20.60
2022-10-19T09:42:04.643Z,18.92
2022-10-19T09:43:07.218Z,20.88
2022-10-19T09:44:08.703Z,21.00
2022-10-19T09:45:19.719Z,21.58
2022-10-19T09:46:30.808Z,20.55
2022-10-19T09:47:35.228Z,20.52
2022-10-19T09:48:47.494Z,18.85
2022-10-19T09:49:49.107Z,18.50
2022-10-19T09:50:55.564Z,19.45
2022-10-19T09:51:56.990Z,19.75
2022-10-19T09:53:02.627Z,19.90
2022-10-19T09:54:04.090Z,21.63
2022-10-19T09:55:07.156Z,20.67
2022-10-19T09:56:16.775Z,23.77
2022-10-19T09:57:21.030Z,19.80
2022-10-19T09:58:27.990Z,22.73
2022-10-19T09:59:36.406Z,22.10
2022-10-19T10:00:39.744Z,22.98
2022-10-19T10:01:43.532Z,23.58
2022-10-19T10:02:50.079Z,22.90
2022-10-19T10:03:55.851Z,24.83
2022-10-19T10:05:05.094Z,23.40
2022-10-19T10:06:08.312Z,23.85
2022-10-19T10:07:16.073Z,26.98
2022-10-19T10:08:20.600Z,23.83
2022-10-19T10:09:25.716Z,23.45
2022-10-19T10:10:30.640Z,23.90
2022-10-19T10:11:35.559Z,23.33
2022-10-19T10:12:39.671Z,24.98
2022-10-19T10:13:43.889Z,24.35
2022-10-19T10:14:45.481Z,22.70
2022-10-19T10:15:49.381Z,25.00
2022-10-19T10:16:55.193Z,23.13
2022-10-19T10:17:58.104Z,24.42
2022-10-19T10:19:04.844Z,23.80
2022-10-19T10:20:20.299Z,22.38
2022-10-19T10:21:25.754Z,23.23
2022-10-19T10:22:31.121Z,23.13
2022-10-19T10:23:34.034Z,26.58
2022-10-19T10:24:35.481Z,24.27
2022-10-19T10:25:37.061Z,25.05
2022-10-19T10:26:39.948Z,23.02
2022-10-19T10:27:41.414Z,22.33
2022-10-19T10:28:47.728Z,24.15
2022-10-19T10:31:04.379Z,22.48
2022-10-19T10:32:11.951Z,21.83
2022-10-19T10:33:27.105Z,23.25
2022-10-19T10:34:51.976Z,23.50
2022-10-19T10:36:01.059Z,23.38
2022-10-19T10:37:05.596Z,24.45
2022-10-19T10:38:12.527Z,22.48
2022-10-19T10:39:17.291Z,23.77
2022-10-19T10:40:23.790Z,23.92
2022-10-19T10:41:28.513Z,24.10
2022-10-19T10:42:34.915Z,23.15
2022-10-19T10:43:48.836Z,23.98
2022-10-19T10:44:53.123Z,23.35
2022-10-19T10:45:59.377Z,23.90
2022-10-19T10:47:02.343Z,23.20
2022-10-19T10:48:17.443Z,22.58
2022-10-19T10:49:22.458Z,23.42
2022-10-19T10:50:32.098Z,22.67
2022-10-19T10:51:38.733Z,23.90
2022-10-19T10:52:40.495Z,21.63
2022-10-19T10:53:43.047Z,25.75
2022-10-19T10:54:58.700Z,23.92
2022-10-19T10:56:00.215Z,23.08
2022-10-19T10:57:11.561Z,23.58
2022-10-19T10:58:17.162Z,21.92
2022-10-19T10:59:26.344Z,21.42
2022-10-19T11:00:29.515Z,22.67
2022-10-19T11:01:36.450Z,22.35
2022-10-19T11:02:44.315Z,22.90
2022-10-19T11:03:51.081Z,21.58
2022-10-19T11:04:59.184Z,23.23
2022-10-19T11:06:02.102Z,20.33
2022-10-19T11:07:16.923Z,21.50
2022-10-19T11:08:25.051Z,22.77
2022-10-19T11:09:31.183Z,22.88
2022-10-19T11:10:36.985Z,21.10
2022-10-19T11:11:44.532Z,20.48
2022-10-19T11:12:50.768Z,22.02
2022-10-19T11:13:56.683Z,21.58
2022-10-19T11:15:04.321Z,21.27
2022-10-19T11:16:12.635Z,20.08
2022-10-19T11:17:18.718Z,22.73
2022-10-19T11:18:24.878Z,23.02
2022-10-19T11:19:31.888Z,21.90
2022-10-19T11:20:35.668Z,20.83
2022-10-19T11:21:46.187Z,20.60
2022-10-19T11:22:54.814Z,18.23
2022-10-19T11:24:09.329Z,17.95
2022-10-19T11:25:32.286Z,19.70
2022-10-19T11:26:52.154Z,20.08
2022-10-19T11:28:03.892Z,18.88
2022-10-19T11:29:23.523Z,18.02
2022-10-19T11:30:26.198Z,19.25
2022-10-19T11:31:38.658Z,18.05
2022-10-19T11:32:49.723Z,18.35
2022-10-19T11:34:00.074Z,18.48
2022-10-19T11:35:25.165Z,19.27
2022-10-19T11:36:42.476Z,18.40
2022-10-19T11:38:18.244Z,17.63
2022-10-19T11:39:41.013Z,17.75
2022-10-19T11:41:16.493Z,17.33
2022-10-19T11:42:23.775Z,16.13
2022-10-19T11:43:33.584Z,16.77
2022-10-19T11:44:47.386Z,16.73
2022-10-19T11:45:55.651Z,15.45
2022-10-19T11:47:17.980Z,14.85
2022-10-19T11:48:44.107Z,15.77
2022-10-19T11:49:57.185Z,15.00
2022-10-19T11:51:17.361Z,15.25
2022-10-19T11:52:32.768Z,15.50
2022-10-19T11:53:46.452Z,14.85
2022-10-19T11:55:01.997Z,14.00
2022-10-19T11:56:10.300Z,14.65
2022-10-19T11:57:16.393Z,14.07
2022-10-19T11:58:35.042Z,15.30
2022-10-19T11:59:49.667Z,14.93
2022-10-19T12:00:58.898Z,16.35
2022-10-19T12:02:10.497Z,13.90
2022-10-19T12:03:47.725Z,16.35
2022-10-19T12:04:54.299Z,14.10
2022-10-19T12:06:05.391Z,15.57
2022-10-19T12:07:20.984Z,14.85
2022-10-19T12:08:41.667Z,16.50
2022-10-19T12:09:50.859Z,16.37
2022-10-19T12:11:01.452Z,15.38
2022-10-19T12:12:18.636Z,16.85
2022-10-19T12:13:27.176Z,15.60
2022-10-19T12:14:33.823Z,15.57
2022-10-19T12:15:39.588Z,16.00
2022-10-19T12:16:45.681Z,15.07
2022-10-19T12:17:51.622Z,15.00
2022-10-19T12:18:58.945Z,15.25
2022-10-19T12:20:03.528Z,15.27
2022-10-19T12:21:11.533Z,14.77
2022-10-19T12:22:18.277Z,14.40
2022-10-19T12:23:28.745Z,14.48
2022-10-19T12:24:32.569Z,14.03
2022-10-19T12:25:38.668Z,13.93
2022-10-19T12:26:40.837Z,14.35
2022-10-19T12:27:42.903Z,12.45
2022-10-19T12:28:50.514Z,13.23
2022-10-19T12:29:53.045Z,12.70
2022-10-19T12:30:55.494Z,14.32
2022-10-19T12:31:59.541Z,15.45
2022-10-19T12:33:14.389Z,14.07
2022-10-19T12:34:26.185Z,14.30
2022-10-19T12:35:55.352Z,13.93
2022-10-19T12:37:02.874Z,13.75
2022-10-19T12:38:10.839Z,13.40
2022-10-19T12:39:22.768Z,14.35
2022-10-19T12:40:32.849Z,14.35
2022-10-19T12:41:44.216Z,13.45
2022-10-19T12:44:11.598Z,13.18
2022-10-19T12:45:25.980Z,13.13
2022-10-19T12:46:37.316Z,12.30
2022-10-19T12:48:40.013Z,12.15
2022-10-19T12:49:47.533Z,11.30
2022-10-19T12:51:07.645Z,12.43
2022-10-19T12:52:09.588Z,11.63
2022-10-19T12:53:23.458Z,12.25
2022-10-19T12:54:28.022Z,11.60
2022-10-19T12:55:30.804Z,12.07
2022-10-19T12:56:48.327Z,11.63
2022-10-19T12:57:58.793Z,11.43
2022-10-19T12:59:01.623Z,11.97
2022-10-19T13:00:18.012Z,11.82
2022-10-19T13:01:23.022Z,12.60
2022-10-19T13:02:28.955Z,12.82
2022-10-19T13:03:33.069Z,11.98
2022-10-19T13:04:35.862Z,11.55
2022-10-19T13:05:38.665Z,11.85
2022-10-19T13:06:43.500Z,11.75
2022-10-19T13:07:48.684Z,11.40
2022-10-19T13:08:57.243Z,11.25
2022-10-19T13:10:02.707Z,11.38
2022-10-19T13:11:07.320Z,11.52
2022-10-19T13:12:40.783Z,10.90
2022-10-19T13:14:06.838Z,10.85
2022-10-19T13:15:55.421Z,11.32
2022-10-19T13:16:58.665Z,11.13
2022-10-19T13:18:00.525Z,10.65
2022-10-19T13:19:04.747Z,10.85
2022-10-19T13:20:43.642Z,10.52
2022-10-19T13:22:26.937Z,11.32
2022-10-19T13:23:39.676Z,11.82
2022-10-19T13:26:30.214Z,10.52
2022-10-19T13:27:39.153Z,11.15
2022-10-19T13:28:52.823Z,11.63
2022-10-19T13:29:54.452Z,12.00
2022-10-19T13:31:08.172Z,11.50
2022-10-19T13:32:36.411Z,10.68
2022-10-19T13:33:44.878Z,12.68
2022-10-19T13:34:47.008Z,12.70
2022-10-19T13:35:48.871Z,11.55
2022-10-19T13:37:01.940Z,12.07
2022-10-19T13:38:27.693Z,12.68
2022-10-19T13:39:30.021Z,12.02
2022-10-19T13:40:31.540Z,12.20
2022-10-19T13:41:52.670Z,12.27
2022-10-19T13:42:58.133Z,11.70
2022-10-19T13:44:03.027Z,11.55
2022-10-19T13:45:05.502Z,11.07
2022-10-19T13:46:11.797Z,11.40
2022-10-19T13:47:30.833Z,11.27
2022-10-19T13:48:41.511Z,10.52
2022-10-19T13:50:13.585Z,10.50
2022-10-19T13:52:57.595Z,9.45
2022-10-19T13:54:10.230Z,10.93
2022-10-19T13:55:24.617Z,10.80
2022-10-19T13:56:41.765Z,10.82
2022-10-19T13:58:00.556Z,10.82
2022-10-19T13:59:35.364Z,10.27
2022-10-19T14:01:00.072Z,11.18
2022-10-19T14:02:44.200Z,9.98
2022-10-19T14:04:00.851Z,9.85
2022-10-19T14:05:19.755Z,10.13
2022-10-19T14:06:28.502Z,9.88
2022-10-19T14:07:36.330Z,9.60
2022-10-19T14:08:56.135Z,9.73
2022-10-19T14:10:05.257Z,9.23
2022-10-19T14:11:14.541Z,9.77
2022-10-19T14:12:22.066Z,9.32
2022-10-19T14:13:25.128Z,9.50
2022-10-19T14:14:28.247Z,9.30
2022-10-19T14:15:32.210Z,8.93
2022-10-19T14:16:33.647Z,9.45
2022-10-19T14:17:41.661Z,9.63